Time;durP1;ratioP1;P1;durP2;ratioP2;P2;SDS_P1;SDS_P2;PMS_P1;PMS_P2;Temp;Humidity;BMP_temperature;BMP_pressure;BME280_temperature;BME280_humidity;BME280_pressure;Samples;Min_cycle;Max_cycle;Signal;HPM_P1;HPM_P2
2021/05/10 00:04:41;;;;;;;;;;;17.00;71.70;;;;;;10449121;28;20444;-67
2021/05/10 00:09:42;;;;;;;;;;;17.00;74.00;;;;;;10448608;28;20108;-67
2021/05/10 00:14:44;;;;;;;;;;;16.60;77.90;;;;;;10448708;28;19974;-67
2021/05/10 00:19:46;;;;;;;;;;;16.60;83.00;;;;;;10448416;28;19925;-67
2021/05/10 00:24:47;;;;;;;;;;;16.60;85.60;;;;;;10408550;28;20448;-67
2021/05/10 00:29:48;;;;;;;;;;;16.80;89.30;;;;;;10448055;28;20018;-67
2021/05/10 00:34:52;;;;;;;;;;;16.70;88.00;;;;;;10448245;28;19935;-67
2021/05/10 00:39:53;;;;;;;;;;;16.60;92.30;;;;;;10446950;28;19964;-67
2021/05/10 00:44:54;;;;;;;;;;;16.60;94.30;;;;;;10447667;28;19924;-67
2021/05/10 00:49:56;;;;;;;;;;;16.40;98.30;;;;;;10447400;28;20516;-67
2021/05/10 00:54:58;;;;;;;;;;;16.40;99.30;;;;;;10447059;28;20308;-67
2021/05/10 01:00:00;;;;;;;;;;;16.40;99.90;;;;;;10446305;28;19964;-67
2021/05/10 01:05:02;;;;;;;;;;;16.20;99.90;;;;;;10447111;28;20015;-68
2021/05/10 01:10:06;;;;;;;;;;;16.00;99.90;;;;;;10445813;28;19932;-67
2021/05/10 01:15:09;;;;;;;;;;;15.90;99.90;;;;;;10447083;28;20019;-67
2021/05/10 01:20:14;;;;;;;;;;;16.00;99.90;;;;;;10446016;28;19968;-67
2021/05/10 01:25:22;;;;;;;;;;;15.90;99.90;;;;;;10461549;28;19931;-67
2021/05/10 01:30:24;;;;;;;;;;;15.40;99.90;;;;;;10446407;28;19939;-67
2021/05/10 01:35:26;;;;;;;;;;;15.10;99.90;;;;;;10445726;28;20333;-67
2021/05/10 01:40:28;;;;;;;;;;;15.20;99.90;;;;;;10429795;28;19972;-67
2021/05/10 01:45:29;;;;;;;;;;;15.30;99.90;;;;;;10446064;28;19952;-67
2021/05/10 01:50:31;;;;;;;;;;;15.30;99.90;;;;;;10444884;28;20023;-67
2021/05/10 01:55:32;;;;;;;;;;;15.30;99.90;;;;;;10445976;28;19956;-67
2021/05/10 02:00:35;;;;;;;;;;;15.20;99.90;;;;;;10444818;28;20019;-67
2021/05/10 02:05:37;;;;;;;;;;;15.30;99.90;;;;;;10452325;28;19964;-67
2021/05/10 02:10:39;;;;;;;;;;;15.50;99.90;;;;;;10452003;28;19956;-67
2021/05/10 02:15:46;;;;;;;;;;;15.60;99.90;;;;;;10452390;28;19960;-67
2021/05/10 02:20:48;;;;;;;;;;;15.80;99.90;;;;;;10450840;28;20355;-67
2021/05/10 02:25:52;;;;;;;;;;;15.80;99.90;;;;;;10451925;28;20418;-67
2021/05/10 02:30:54;;;;;;;;;;;15.90;99.90;;;;;;10451651;28;19983;-67
2021/05/10 02:35:56;;;;;;;;;;;15.80;99.90;;;;;;10451539;28;19925;-67
2021/05/10 02:40:57;;;;;;;;;;;15.80;99.90;;;;;;10451832;28;19940;-67
2021/05/10 02:45:59;;;;;;;;;;;15.60;99.90;;;;;;10451553;28;20328;-67
2021/05/10 02:51:00;;;;;;;;;;;15.50;99.90;;;;;;10451154;28;20321;-67
2021/05/10 02:56:02;;;;;;;;;;;15.60;99.90;;;;;;10451165;28;19989;-67
2021/05/10 03:01:03;;;;;;;;;;;15.70;99.90;;;;;;10453245;28;19975;-67
2021/05/10 03:06:05;;;;;;;;;;;15.80;99.90;;;;;;10453297;28;19960;-67
2021/05/10 03:11:06;;;;;;;;;;;15.90;99.90;;;;;;10452810;28;20008;-67
2021/05/10 03:16:08;;;;;;;;;;;15.90;99.90;;;;;;10449679;28;20440;-67
2021/05/10 03:21:10;;;;;;;;;;;15.80;99.90;;;;;;10450760;28;19925;-67
2021/05/10 03:26:11;;;;;;;;;;;15.70;99.90;;;;;;10450427;28;20381;-67
2021/05/10 03:31:12;;;;;;;;;;;15.70;99.90;;;;;;10450813;28;19968;-67
2021/05/10 03:36:14;;;;;;;;;;;15.60;99.90;;;;;;10450288;28;20047;-67
2021/05/10 03:41:15;;;;;;;;;;;15.60;99.90;;;;;;10450275;28;20357;-67
2021/05/10 03:46:16;;;;;;;;;;;15.50;99.90;;;;;;10449539;28;20032;-67
2021/05/10 03:51:18;;;;;;;;;;;15.30;99.90;;;;;;10449866;28;20397;-67
2021/05/10 03:56:20;;;;;;;;;;;15.20;99.90;;;;;;10449358;28;20027;-67
2021/05/10 04:01:21;;;;;;;;;;;15.20;99.90;;;;;;10449254;28;19972;-67
2021/05/10 04:06:44;;;;;;;;;;;15.40;99.90;;;;;;10449144;28;20435;-68
2021/05/10 04:16:59;;;;;;;;;;;15.40;99.90;;;;;;10448391;28;20020;-67
2021/05/10 04:22:00;;;;;;;;;;;15.30;99.90;;;;;;10448731;28;19928;-67
2021/05/10 04:27:04;;;;;;;;;;;15.30;99.90;;;;;;10446305;28;19976;-67
2021/05/10 04:32:06;;;;;;;;;;;15.20;99.90;;;;;;10439683;28;19972;-67
2021/05/10 04:37:07;;;;;;;;;;;15.30;99.90;;;;;;10427850;28;19932;-67
2021/05/10 04:42:09;;;;;;;;;;;15.50;99.90;;;;;;10440571;28;20292;-67
2021/05/10 04:47:10;;;;;;;;;;;15.60;99.90;;;;;;10455571;28;20011;-67
2021/05/10 04:52:12;;;;;;;;;;;15.80;99.90;;;;;;10445327;28;19925;-67
2021/05/10 04:57:13;;;;;;;;;;;15.80;99.90;;;;;;10459287;28;19980;-67
2021/05/10 05:02:14;;;;;;;;;;;15.90;99.90;;;;;;10449319;28;20558;-67
2021/05/10 05:07:16;;;;;;;;;;;15.90;99.90;;;;;;10444183;28;19931;-67
2021/05/10 05:12:17;;;;;;;;;;;15.90;99.90;;;;;;10443297;28;19928;-67
2021/05/10 05:17:19;;;;;;;;;;;15.80;99.90;;;;;;10457805;28;19968;-67
2021/05/10 05:22:20;;;;;;;;;;;15.70;99.90;;;;;;10443380;28;20019;-67
2021/05/10 05:27:22;;;;;;;;;;;15.80;99.90;;;;;;10443275;28;19925;-67
2021/05/10 05:32:23;;;;;;;;;;;15.80;99.90;;;;;;10439066;28;19976;-67
2021/05/10 05:37:26;;;;;;;;;;;15.90;99.90;;;;;;10445555;28;19931;-67
2021/05/10 05:42:28;;;;;;;;;;;16.00;99.90;;;;;;10455270;28;19925;-67
2021/05/10 05:47:30;;;;;;;;;;;16.10;99.90;;;;;;10443521;28;20016;-67
2021/05/10 05:52:33;;;;;;;;;;;16.40;99.90;;;;;;10443511;28;19932;-67
2021/05/10 05:57:36;;;;;;;;;;;16.60;99.90;;;;;;10442765;28;19978;-67
2021/05/10 06:02:37;;;;;;;;;;;16.70;99.90;;;;;;10442206;28;20028;-67
2021/05/10 06:07:40;;;;;;;;;;;16.80;99.90;;;;;;10467745;28;19924;-67
2021/05/10 06:12:45;;;;;;;;;;;16.90;99.90;;;;;;10468827;28;20396;-67
2021/05/10 06:17:46;;;;;;;;;;;17.10;99.90;;;;;;10442620;28;19932;-67
2021/05/10 06:22:48;;;;;;;;;;;17.20;99.90;;;;;;10435215;28;19929;-67
2021/05/10 06:27:50;;;;;;;;;;;17.40;99.90;;;;;;10444065;28;20015;-67
2021/05/10 06:32:53;;;;;;;;;;;17.70;99.90;;;;;;10444117;28;20073;-67
2021/05/10 06:37:55;;;;;;;;;;;18.00;99.90;;;;;;10448804;28;19975;-68
2021/05/10 06:42:56;;;;;;;;;;;18.10;99.90;;;;;;10452221;28;19925;-67
2021/05/10 06:47:57;;;;;;;;;;;18.10;99.90;;;;;;10451945;28;20341;-67
2021/05/10 06:52:59;;;;;;;;;;;18.10;99.90;;;;;;10452600;28;19972;-68
2021/05/10 06:58:09;;;;;;;;;;;18.20;99.90;;;;;;10451566;28;20448;-67
2021/05/10 07:03:10;;;;;;;;;;;18.60;99.90;;;;;;10452337;28;19925;-68
2021/05/10 07:08:15;;;;;;;;;;;19.20;99.90;;;;;;10451388;28;20556;-68
2021/05/10 07:13:17;;;;;;;;;;;19.70;99.00;;;;;;10451433;28;20466;-68
2021/05/10 07:18:18;;;;;;;;;;;19.80;96.40;;;;;;10451353;28;20019;-67
2021/05/10 07:23:20;;;;;;;;;;;20.30;95.80;;;;;;10451243;28;20012;-68
2021/05/10 07:28:27;;;;;;;;;;;20.80;92.00;;;;;;10450409;28;20296;-68
2021/05/10 07:33:28;;;;;;;;;;;20.60;90.20;;;;;;10450790;28;20537;-68
2021/05/10 07:38:30;;;;;;;;;;;20.70;88.20;;;;;;10450321;28;20441;-68
2021/05/10 07:43:31;;;;;;;;;;;21.40;82.90;;;;;;10449976;28;19976;-68
2021/05/10 07:48:32;;;;;;;;;;;21.30;68.90;;;;;;10449767;28;20015;-68
2021/05/10 07:53:34;;;;;;;;;;;20.90;68.40;;;;;;10450083;28;19960;-69
2021/05/10 07:58:37;;;;;;;;;;;20.90;66.60;;;;;;10449993;28;20003;-69
2021/05/10 08:03:40;;;;;;;;;;;20.90;66.10;;;;;;10449350;28;19931;-68
2021/05/10 08:08:41;;;;;;;;;;;21.50;64.90;;;;;;10449645;28;19964;-69
2021/05/10 08:13:42;;;;;;;;;;;22.50;60.10;;;;;;10448589;28;20343;-68
2021/05/10 08:18:44;;;;;;;;;;;21.90;60.70;;;;;;10448780;28;20011;-68
2021/05/10 08:23:46;;;;;;;;;;;21.20;62.30;;;;;;10448671;28;19978;-68
2021/05/10 08:28:47;;;;;;;;;;;20.80;64.20;;;;;;10448592;28;19968;-68
2021/05/10 08:33:50;;;;;;;;;;;20.40;63.50;;;;;;10447967;28;19964;-68
2021/05/10 08:38:54;;;;;;;;;;;20.10;64.00;;;;;;10465475;28;20019;-68
2021/05/10 08:43:57;;;;;;;;;;;20.10;64.10;;;;;;10450426;28;20012;-68
2021/05/10 08:48:58;;;;;;;;;;;20.90;64.00;;;;;;10445529;28;19928;-68
2021/05/10 08:54:00;;;;;;;;;;;22.10;58.70;;;;;;10452283;28;19924;-68
2021/05/10 08:59:01;;;;;;;;;;;21.50;59.60;;;;;;10445874;28;20280;-68
2021/05/10 09:04:04;;;;;;;;;;;20.90;60.60;;;;;;10459332;28;19931;-68
2021/05/10 09:09:09;;;;;;;;;;;20.20;62.90;;;;;;10445932;28;20410;-68
2021/05/10 09:14:10;;;;;;;;;;;20.00;64.80;;;;;;10453608;28;20011;-68
2021/05/10 09:19:56;;;;;;;;;;;20.00;64.10;;;;;;10462071;28;19929;-68
2021/05/10 09:24:58;;;;;;;;;;;19.80;65.20;;;;;;10444963;28;20427;-68
2021/05/10 09:30:13;;;;;;;;;;;19.70;65.90;;;;;;10480621;28;19963;-68
2021/05/10 09:35:18;;;;;;;;;;;19.60;67.20;;;;;;10458517;28;20003;-68
2021/05/10 09:40:20;;;;;;;;;;;19.60;67.90;;;;;;10453473;28;20384;-68
2021/05/10 09:45:43;;;;;;;;;;;19.80;68.30;;;;;;10436507;28;19935;-68
2021/05/10 09:50:55;;;;;;;;;;;19.80;66.80;;;;;;10426789;28;20424;-68
2021/05/10 09:55:57;;;;;;;;;;;19.90;66.80;;;;;;10443113;28;19928;-68
2021/05/10 10:00:59;;;;;;;;;;;19.80;66.30;;;;;;10441116;28;20020;-68
2021/05/10 10:06:03;;;;;;;;;;;19.80;67.40;;;;;;10432984;28;20285;-62
2021/05/10 10:11:05;;;;;;;;;;;19.60;68.00;;;;;;10446478;28;19986;-62
2021/05/10 10:16:07;;;;;;;;;;;19.30;68.80;;;;;;10449629;28;19960;-63
2021/05/10 10:21:10;;;;;;;;;;;19.20;68.40;;;;;;10450648;28;20024;-63
2021/05/10 10:26:15;;;;;;;;;;;19.60;68.70;;;;;;10447082;28;20304;-63
2021/05/10 10:31:23;;;;;;;;;;;19.90;69.00;;;;;;10447585;28;19964;-63
2021/05/10 10:36:26;;;;;;;;;;;19.90;68.70;;;;;;10452512;28;19929;-63
2021/05/10 10:41:28;;;;;;;;;;;19.80;70.50;;;;;;10478885;28;19956;-63
2021/05/10 10:46:31;;;;;;;;;;;19.90;70.60;;;;;;10438024;28;20023;-63
2021/05/10 10:51:50;;;;;;;;;;;19.90;68.20;;;;;;10446443;28;19996;-63
2021/05/10 10:56:54;;;;;;;;;;;19.80;67.90;;;;;;10445185;28;20023;-63
2021/05/10 11:01:56;;;;;;;;;;;19.40;68.90;;;;;;10450735;28;20020;-64
2021/05/10 11:06:58;;;;;;;;;;;19.30;70.40;;;;;;10451256;28;19935;-64
2021/05/10 11:11:59;;;;;;;;;;;19.00;69.70;;;;;;10450183;28;20015;-63
2021/05/10 11:17:01;;;;;;;;;;;19.00;70.80;;;;;;10450427;28;20039;-63
2021/05/10 11:22:22;;;;;;;;;;;19.20;71.60;;;;;;10436558;28;19929;-63
2021/05/10 11:27:31;;;;;;;;;;;19.40;72.10;;;;;;10439540;28;19928;-63
2021/05/10 11:32:33;;;;;;;;;;;19.70;71.00;;;;;;10447732;28;19947;-63
2021/05/10 11:37:36;;;;;;;;;;;19.90;71.30;;;;;;10446436;28;20336;-63
2021/05/10 11:42:37;;;;;;;;;;;19.80;71.60;;;;;;10452425;28;19956;-63
2021/05/10 11:47:45;;;;;;;;;;;19.50;72.10;;;;;;10412551;28;19929;-63
2021/05/10 11:52:47;;;;;;;;;;;19.30;73.70;;;;;;10443233;28;20523;-63
2021/05/10 11:57:55;;;;;;;;;;;19.20;74.70;;;;;;10414644;28;20012;-63
2021/05/10 12:02:57;;;;;;;;;;;19.20;74.10;;;;;;10406958;28;19968;-63
2021/05/10 12:07:59;;;;;;;;;;;19.30;74.60;;;;;;10439637;28;20343;-63
2021/05/10 12:13:01;;;;;;;;;;;19.40;75.10;;;;;;10446267;28;20451;-63
2021/05/10 12:18:04;;;;;;;;;;;19.10;76.70;;;;;;10419728;28;20031;-63
2021/05/10 12:23:07;;;;;;;;;;;18.70;79.90;;;;;;10413122;28;19931;-63
2021/05/10 12:28:10;;;;;;;;;;;18.60;81.80;;;;;;10442641;28;20041;-64
2021/05/10 12:33:18;;;;;;;;;;;18.60;83.70;;;;;;10448382;28;20016;-63
2021/05/10 12:38:27;;;;;;;;;;;18.40;86.20;;;;;;10445597;28;19976;-63
2021/05/10 12:43:30;;;;;;;;;;;18.40;92.10;;;;;;10464264;28;20586;-63
2021/05/10 12:48:40;;;;;;;;;;;18.20;97.30;;;;;;10448387;28;19960;-63
2021/05/10 12:53:43;;;;;;;;;;;17.90;99.90;;;;;;10444562;28;19932;-63
2021/05/10 12:58:48;;;;;;;;;;;17.80;99.90;;;;;;10445626;28;19928;-63
2021/05/10 13:04:00;;;;;;;;;;;17.70;99.90;;;;;;10444443;28;20008;-63
2021/05/10 13:09:22;;;;;;;;;;;17.90;99.90;;;;;;10446977;28;20340;-63
2021/05/10 13:40:44;;;;;;;;;;;18.60;99.90;;;;;;10446217;28;19925;-64
2021/05/10 13:45:46;;;;;;;;;;;18.50;99.90;;;;;;10445833;28;19931;-63
2021/05/10 13:50:47;;;;;;;;;;;18.80;99.50;;;;;;10443564;28;19925;-63
2021/05/10 13:55:48;;;;;;;;;;;19.50;96.40;;;;;;10445608;28;19925;-63
2021/05/10 14:00:50;;;;;;;;;;;19.90;94.50;;;;;;10445349;28;20356;-63
2021/05/10 14:05:51;;;;;;;;;;;20.40;92.10;;;;;;10445303;28;20519;-64
2021/05/10 14:10:52;;;;;;;;;;;20.50;88.00;;;;;;10445688;28;19971;-64
2021/05/10 14:15:54;;;;;;;;;;;20.60;86.10;;;;;;10444335;28;19925;-63
2021/05/10 14:26:16;;;;;;;;;;;21.40;76.70;;;;;;10445133;28;20020;-64
2021/05/10 14:31:17;;;;;;;;;;;21.50;73.40;;;;;;10444768;28;20380;-64
2021/05/10 14:36:19;;;;;;;;;;;21.20;72.50;;;;;;10443568;28;19971;-64
2021/05/10 14:41:20;;;;;;;;;;;21.10;73.00;;;;;;10445439;28;19968;-64
2021/05/10 14:46:21;;;;;;;;;;;20.60;71.70;;;;;;10443650;28;19978;-64
2021/05/10 14:51:23;;;;;;;;;;;20.20;72.70;;;;;;10444173;28;19924;-64
2021/05/10 14:56:25;;;;;;;;;;;20.10;73.30;;;;;;10446168;28;19933;-63
2021/05/10 15:01:26;;;;;;;;;;;19.90;74.50;;;;;;10451513;28;19964;-63
2021/05/10 15:06:28;;;;;;;;;;;19.80;75.20;;;;;;10451196;28;20003;-63
2021/05/10 15:11:33;;;;;;;;;;;19.90;73.40;;;;;;10451372;28;19967;-64
2021/05/10 15:16:36;;;;;;;;;;;19.80;75.00;;;;;;10451762;28;20015;-64
2021/05/10 15:21:37;;;;;;;;;;;19.70;76.50;;;;;;10450309;28;19932;-64
2021/05/10 15:26:38;;;;;;;;;;;19.60;74.40;;;;;;10451835;28;19950;-64
2021/05/10 15:31:40;;;;;;;;;;;18.90;91.60;;;;;;10449857;28;19925;-64
2021/05/10 15:36:41;;;;;;;;;;;18.00;99.90;;;;;;10450150;28;19929;-64
2021/05/10 15:41:43;;;;;;;;;;;17.70;99.90;;;;;;10448423;28;20028;-64
2021/05/10 15:46:45;;;;;;;;;;;17.40;99.90;;;;;;10464470;28;19940;-64
2021/05/10 15:51:46;;;;;;;;;;;17.00;99.90;;;;;;10466664;28;20434;-64
2021/05/10 15:56:49;;;;;;;;;;;17.00;99.90;;;;;;10468830;28;19935;-63
2021/05/10 16:01:51;;;;;;;;;;;17.00;99.90;;;;;;10487406;28;20043;-63
2021/05/10 16:06:53;;;;;;;;;;;16.90;99.90;;;;;;10490499;28;19929;-64
2021/05/10 16:11:55;;;;;;;;;;;16.90;99.90;;;;;;10467091;28;20023;-64
2021/05/10 16:16:56;;;;;;;;;;;16.80;99.90;;;;;;10462986;28;20476;-64
2021/05/10 16:21:58;;;;;;;;;;;16.80;99.90;;;;;;10450312;28;19931;-64
2021/05/10 16:26:59;;;;;;;;;;;16.70;99.90;;;;;;10452336;28;20003;-64
2021/05/10 16:32:00;;;;;;;;;;;16.90;99.90;;;;;;10447541;28;20335;-64
2021/05/10 16:37:02;;;;;;;;;;;16.90;99.90;;;;;;10460114;28;20482;-64
2021/05/10 16:42:04;;;;;;;;;;;16.50;99.90;;;;;;10447635;28;19960;-64
2021/05/10 16:47:06;;;;;;;;;;;15.90;99.90;;;;;;10446405;28;19932;-64
2021/05/10 16:52:08;;;;;;;;;;;15.90;99.90;;;;;;10447628;28;20332;-64
2021/05/10 16:57:09;;;;;;;;;;;15.70;99.90;;;;;;10446385;28;20455;-64
2021/05/10 17:02:10;;;;;;;;;;;15.50;99.90;;;;;;10447111;28;19971;-64
2021/05/10 17:07:12;;;;;;;;;;;15.50;99.90;;;;;;10447195;28;20399;-64
2021/05/10 17:12:13;;;;;;;;;;;15.50;99.90;;;;;;10437927;28;19979;-64
2021/05/10 17:17:15;;;;;;;;;;;15.40;99.90;;;;;;10407312;28;20851;-64
2021/05/10 17:22:16;;;;;;;;;;;15.30;99.90;;;;;;10412809;28;19929;-64
2021/05/10 17:27:17;;;;;;;;;;;15.10;99.90;;;;;;10426851;28;20373;-63
2021/05/10 17:32:22;;;;;;;;;;;15.10;99.90;;;;;;10445920;28;19929;-63
2021/05/10 17:37:23;;;;;;;;;;;15.10;99.90;;;;;;10445724;28;20050;-63
2021/05/10 17:42:24;;;;;;;;;;;15.10;99.90;;;;;;10445851;28;20015;-63
2021/05/10 17:47:26;;;;;;;;;;;15.10;99.90;;;;;;10444700;28;20000;-63
2021/05/10 17:52:27;;;;;;;;;;;15.10;99.90;;;;;;10444439;28;19929;-64
2021/05/10 17:57:30;;;;;;;;;;;15.00;99.90;;;;;;10454349;28;20399;-63
2021/05/10 18:08:11;;;;;;;;;;;15.10;99.90;;;;;;10445554;28;19936;-63
2021/05/10 18:13:13;;;;;;;;;;;15.00;99.90;;;;;;10444165;28;20011;-63
2021/05/10 18:18:14;;;;;;;;;;;14.70;99.90;;;;;;10443410;28;19933;-63
2021/05/10 18:23:15;;;;;;;;;;;14.60;99.90;;;;;;10438185;28;20016;-63
2021/05/10 18:28:17;;;;;;;;;;;14.70;99.90;;;;;;10441907;28;20016;-63
2021/05/10 18:33:19;;;;;;;;;;;14.60;99.90;;;;;;10415706;28;20016;-63
2021/05/10 18:38:21;;;;;;;;;;;14.80;99.90;;;;;;10414342;28;19933;-63
2021/05/10 18:43:22;;;;;;;;;;;14.80;99.90;;;;;;10458501;28;19937;-63
2021/05/10 18:48:25;;;;;;;;;;;14.80;99.90;;;;;;10431951;28;19933;-63
2021/05/10 18:53:27;;;;;;;;;;;14.80;99.90;;;;;;10411931;28;19925;-63
2021/05/10 18:58:28;;;;;;;;;;;14.60;99.90;;;;;;10451675;28;19925;-70
2021/05/10 19:03:29;;;;;;;;;;;14.50;99.90;;;;;;10449425;28;20012;-70
2021/05/10 19:08:31;;;;;;;;;;;14.40;99.90;;;;;;10433645;28;20019;-69
2021/05/10 19:13:32;;;;;;;;;;;14.40;99.90;;;;;;10451215;28;20431;-70
2021/05/10 19:18:34;;;;;;;;;;;14.40;99.90;;;;;;10450214;28;19932;-70
2021/05/10 19:23:35;;;;;;;;;;;14.30;99.90;;;;;;10451576;28;20011;-70
2021/05/10 19:28:37;;;;;;;;;;;14.30;99.90;;;;;;10450607;28;19987;-71
2021/05/10 19:33:38;;;;;;;;;;;14.40;99.90;;;;;;10430414;28;20012;-71
2021/05/10 19:38:39;;;;;;;;;;;14.20;99.90;;;;;;10422980;28;19960;-71
2021/05/10 19:43:41;;;;;;;;;;;14.30;99.90;;;;;;10410824;28;20008;-71
2021/05/10 19:49:05;;;;;;;;;;;14.30;99.90;;;;;;10434889;28;20359;-71
2021/05/10 20:00:09;;;;;;;;;;;14.00;99.90;;;;;;10448421;28;20015;-71
2021/05/10 20:04:53;;;;;;;;;;;14.10;99.90;;;;;;10449327;28;20008;-71
2021/05/10 20:09:55;;;;;;;;;;;14.00;99.90;;;;;;10447790;28;19968;-71
2021/05/10 20:14:56;;;;;;;;;;;14.20;99.90;;;;;;10448484;28;20011;-71
2021/05/10 20:19:57;;;;;;;;;;;14.30;99.90;;;;;;10448158;28;20020;-71
2021/05/10 20:24:59;;;;;;;;;;;14.30;99.90;;;;;;10448636;28;19925;-71
2021/05/10 20:30:00;;;;;;;;;;;14.30;99.90;;;;;;10447450;28;20539;-71
2021/05/10 20:35:01;;;;;;;;;;;14.30;99.90;;;;;;10447078;28;20397;-71
2021/05/10 20:40:04;;;;;;;;;;;14.10;99.90;;;;;;10447354;28;20040;-70
2021/05/10 20:45:05;;;;;;;;;;;14.10;99.90;;;;;;10446600;28;19972;-71
2021/05/10 20:50:07;;;;;;;;;;;14.30;99.90;;;;;;10446751;28;20371;-71
2021/05/10 20:55:08;;;;;;;;;;;14.30;99.90;;;;;;10445288;28;20365;-71
2021/05/10 21:00:10;;;;;;;;;;;14.30;99.90;;;;;;10445924;28;20027;-71
2021/05/10 21:05:12;;;;;;;;;;;14.30;99.90;;;;;;10447018;28;19925;-71
2021/05/10 21:10:30;;;;;;;;;;;14.30;99.90;;;;;;10446653;28;19967;-71
2021/05/10 21:15:31;;;;;;;;;;;14.30;99.90;;;;;;10446749;28;20630;-71
2021/05/10 21:20:32;;;;;;;;;;;14.00;99.90;;;;;;10446511;28;20365;-71
2021/05/10 21:25:34;;;;;;;;;;;13.90;99.90;;;;;;10446006;28;19924;-71
2021/05/10 21:30:35;;;;;;;;;;;14.00;99.90;;;;;;10446460;28;20247;-71
2021/05/10 21:35:36;;;;;;;;;;;13.80;99.90;;;;;;10444850;28;19960;-71
2021/05/10 21:40:38;;;;;;;;;;;13.90;99.90;;;;;;10461656;28;19986;-71
2021/05/10 21:45:39;;;;;;;;;;;13.90;99.90;;;;;;10445687;28;19964;-71
2021/05/10 21:50:40;;;;;;;;;;;14.00;99.90;;;;;;10444638;28;19971;-71
2021/05/10 21:55:42;;;;;;;;;;;14.00;99.90;;;;;;10446078;28;20943;-71
2021/05/10 22:00:44;;;;;;;;;;;13.70;99.90;;;;;;10445373;28;20482;-71
2021/05/10 22:05:46;;;;;;;;;;;13.70;99.90;;;;;;10446666;28;20028;-71
2021/05/10 22:10:49;;;;;;;;;;;13.90;99.90;;;;;;10454173;28;19968;-71
2021/05/10 22:15:50;;;;;;;;;;;14.00;99.90;;;;;;10452908;28;20016;-71
2021/05/10 22:20:55;;;;;;;;;;;14.00;99.90;;;;;;10453781;28;20519;-71
2021/05/10 22:26:23;;;;;;;;;;;13.90;99.90;;;;;;10468271;28;19925;-71
2021/05/10 22:31:24;;;;;;;;;;;13.90;99.90;;;;;;10452867;28;19928;-71
2021/05/10 22:36:33;;;;;;;;;;;13.90;99.90;;;;;;10452693;28;19929;-71
2021/05/10 22:41:38;;;;;;;;;;;13.90;99.90;;;;;;10453039;28;19980;-71
2021/05/10 23:17:53;;;;;;;;;;;13.40;99.90;;;;;;10449723;28;20028;-71
2021/05/10 23:22:54;;;;;;;;;;;13.40;99.90;;;;;;10451508;28;20043;-71
2021/05/10 23:27:56;;;;;;;;;;;13.60;99.90;;;;;;10450673;28;20472;-71
2021/05/10 23:32:57;;;;;;;;;;;13.60;99.90;;;;;;10451833;28;20019;-71
2021/05/10 23:37:58;;;;;;;;;;;13.70;99.90;;;;;;10450170;28;19964;-72
2021/05/10 23:42:59;;;;;;;;;;;13.80;99.90;;;;;;10450804;28;20024;-71
2021/05/10 23:48:01;;;;;;;;;;;13.90;99.90;;;;;;10448456;28;19928;-71
2021/05/10 23:53:03;;;;;;;;;;;14.00;99.90;;;;;;10449543;28;19932;-72
2021/05/10 23:58:04;;;;;;;;;;;13.80;99.90;;;;;;10415458;28;19924;-71
